createdAt,value
2018-10-19T00:00:12.368Z,16.27
2018-10-19T00:00:52.708Z,15.00
2018-10-19T00:01:32.900Z,16.27
2018-10-19T00:02:12.581Z,15.53
2018-10-19T00:02:53.017Z,15.25
2018-10-19T00:03:33.199Z,16.10
2018-10-19T00:04:13.553Z,15.95
2018-10-19T00:04:53.942Z,16.65
2018-10-19T00:05:34.498Z,15.78
2018-10-19T00:06:14.960Z,16.25
2018-10-19T00:06:54.732Z,16.03
2018-10-19T00:07:35.039Z,15.98
2018-10-19T00:08:16.498Z,16.27
2018-10-19T00:08:56.098Z,15.17
2018-10-19T00:09:36.101Z,14.73
2018-10-19T00:10:15.748Z,14.27
2018-10-19T00:10:56.054Z,14.50
2018-10-19T00:11:36.798Z,14.95
2018-10-19T00:12:16.724Z,15.53
2018-10-19T00:12:57.132Z,15.03
2018-10-19T00:13:37.572Z,14.35
2018-10-19T00:14:17.151Z,13.97
2018-10-19T00:14:57.423Z,14.28
2018-10-19T00:15:37.179Z,15.40
2018-10-19T00:16:16.939Z,13.73
2018-10-19T00:16:56.688Z,14.97
2018-10-19T00:17:36.672Z,13.87
2018-10-19T00:18:16.821Z,13.58
2018-10-19T00:18:56.392Z,14.50
2018-10-19T00:19:35.968Z,13.83
2018-10-19T00:20:15.783Z,15.03
2018-10-19T00:20:55.395Z,14.33
2018-10-19T00:21:35.265Z,14.30
2018-10-19T00:22:14.897Z,14.27
2018-10-19T00:22:54.551Z,14.13
2018-10-19T00:23:34.593Z,13.23
2018-10-19T00:24:15.012Z,12.35
2018-10-19T00:24:54.736Z,13.67
2018-10-19T00:25:34.388Z,13.87
2018-10-19T00:26:14.225Z,13.13
2018-10-19T00:26:54.332Z,13.03
2018-10-19T00:27:34.061Z,13.87
2018-10-19T00:28:13.662Z,14.07
2018-10-19T00:28:53.297Z,13.77
2018-10-19T00:29:33.256Z,12.77
2018-10-19T00:30:13.631Z,12.65
2018-10-19T00:30:53.284Z,12.00
2018-10-19T00:31:33.588Z,11.80
2018-10-19T00:32:13.924Z,13.00
2018-10-19T00:32:53.665Z,12.60
2018-10-19T00:33:33.373Z,12.07
2018-10-19T00:34:12.965Z,12.23
2018-10-19T00:34:52.738Z,12.60
2018-10-19T00:35:32.491Z,12.40
2018-10-19T00:36:12.113Z,12.70
2018-10-19T00:36:51.983Z,11.30
2018-10-19T00:37:31.908Z,12.50
2018-10-19T00:38:11.727Z,12.00
2018-10-19T00:38:51.292Z,11.87
2018-10-19T00:39:30.816Z,11.43
2018-10-19T00:40:10.551Z,11.73
2018-10-19T00:40:50.193Z,12.20
2018-10-19T00:41:29.963Z,11.60
2018-10-19T00:42:09.651Z,11.57
2018-10-19T00:42:49.405Z,12.00
2018-10-19T00:43:30.577Z,11.60
2018-10-19T00:44:10.364Z,11.10
2018-10-19T00:44:50.064Z,11.97
2018-10-19T00:45:34.925Z,11.73
2018-10-19T00:46:14.721Z,12.03
2018-10-19T00:46:54.304Z,12.10
2018-10-19T00:47:33.873Z,12.97
2018-10-19T00:48:16.741Z,11.50
2018-10-19T00:48:56.345Z,11.30
2018-10-19T00:49:35.910Z,11.83
2018-10-19T00:50:15.623Z,11.43
2018-10-19T00:50:55.478Z,11.50
2018-10-19T00:51:35.309Z,11.83
2018-10-19T00:52:15.100Z,11.43
2018-10-19T00:52:54.706Z,11.60
2018-10-19T00:53:34.460Z,11.87
2018-10-19T00:54:14.220Z,11.10
2018-10-19T00:54:54.187Z,11.50
2018-10-19T00:55:33.950Z,11.33
2018-10-19T00:56:13.887Z,11.90
2018-10-19T00:56:53.661Z,11.60
2018-10-19T00:57:33.492Z,11.93
2018-10-19T00:58:13.278Z,12.27
2018-10-19T00:58:53.030Z,11.67
2018-10-19T00:59:33.307Z,11.93
2018-10-19T01:00:13.288Z,11.23
2018-10-19T01:00:52.853Z,11.57
2018-10-19T01:01:32.664Z,12.23
2018-10-19T01:02:12.410Z,12.13
2018-10-19T01:02:52.117Z,12.53
2018-10-19T01:03:31.949Z,11.73
2018-10-19T01:04:11.633Z,12.57
2018-10-19T01:04:51.901Z,12.30
2018-10-19T01:05:32.236Z,12.28
2018-10-19T01:06:12.368Z,11.97
2018-10-19T01:06:52.052Z,12.83
2018-10-19T01:07:31.877Z,10.77
2018-10-19T01:08:11.637Z,12.53
2018-10-19T01:08:51.447Z,12.73
2018-10-19T01:09:31.284Z,12.07
2018-10-19T01:10:15.096Z,10.97
2018-10-19T01:10:54.801Z,11.27
2018-10-19T01:11:34.915Z,12.67
2018-10-19T01:12:14.470Z,12.00
2018-10-19T01:12:57.162Z,12.10
2018-10-19T01:13:36.764Z,11.47
2018-10-19T01:14:16.512Z,11.73
2018-10-19T01:14:56.154Z,11.73
2018-10-19T01:15:36.080Z,12.43
2018-10-19T01:16:15.626Z,10.90
2018-10-19T01:16:55.337Z,12.37
2018-10-19T01:17:35.397Z,11.37
2018-10-19T01:18:15.034Z,12.03
2018-10-19T01:18:54.892Z,11.93
2018-10-19T01:19:34.815Z,12.30
2018-10-19T01:20:14.789Z,11.13
2018-10-19T01:20:54.338Z,11.37
2018-10-19T01:21:34.421Z,12.30
2018-10-19T01:22:14.664Z,12.03
2018-10-19T01:22:54.424Z,12.47
2018-10-19T01:23:34.244Z,11.83
2018-10-19T01:24:14.007Z,11.60
2018-10-19T01:24:53.733Z,11.13
2018-10-19T01:25:33.361Z,12.20
2018-10-19T01:26:13.004Z,11.57
2018-10-19T01:26:52.756Z,11.57
2018-10-19T01:27:32.596Z,11.77
2018-10-19T01:28:12.775Z,11.83
2018-10-19T01:28:52.770Z,11.20
2018-10-19T01:29:32.474Z,12.40
2018-10-19T01:30:12.247Z,11.23
2018-10-19T01:30:51.840Z,11.67
2018-10-19T01:31:31.438Z,11.20
2018-10-19T01:32:11.182Z,11.00
2018-10-19T01:32:51.039Z,11.60
2018-10-19T01:33:30.808Z,10.37
2018-10-19T01:34:10.441Z,11.67
2018-10-19T01:34:50.179Z,10.97
2018-10-19T01:35:29.749Z,11.60
2018-10-19T01:36:09.812Z,11.50
2018-10-19T01:36:49.480Z,11.93
2018-10-19T01:37:29.068Z,11.17
2018-10-19T01:38:08.736Z,11.07
2018-10-19T01:38:48.667Z,11.77
2018-10-19T01:39:28.213Z,11.67
2018-10-19T01:40:10.280Z,11.07
2018-10-19T01:40:50.149Z,11.53
2018-10-19T01:41:29.709Z,11.60
2018-10-19T01:42:09.369Z,10.63
2018-10-19T01:42:49.095Z,10.83
2018-10-19T01:43:29.148Z,11.17
2018-10-19T01:44:09.760Z,11.27
2018-10-19T01:44:49.459Z,11.03
2018-10-19T01:45:29.716Z,11.63
2018-10-19T01:46:09.455Z,11.23
2018-10-19T01:46:50.411Z,9.87
2018-10-19T01:47:30.115Z,10.97
2018-10-19T01:48:10.023Z,11.03
2018-10-19T01:48:49.593Z,11.33
2018-10-19T01:49:29.394Z,11.83
2018-10-19T01:50:09.997Z,11.70
2018-10-19T01:50:49.564Z,11.70
2018-10-19T01:51:29.248Z,11.20
2018-10-19T01:52:08.873Z,10.87
2018-10-19T01:52:48.530Z,10.83
2018-10-19T01:53:28.566Z,11.40
2018-10-19T01:54:08.213Z,11.77
2018-10-19T01:54:47.896Z,11.70
2018-10-19T01:55:27.573Z,12.40
2018-10-19T01:56:07.209Z,11.70
2018-10-19T01:56:46.892Z,11.50
2018-10-19T01:57:26.570Z,11.27
2018-10-19T01:58:06.280Z,10.00
2018-10-19T01:58:46.041Z,11.80
2018-10-19T01:59:25.740Z,12.37
2018-10-19T02:00:06.634Z,10.97
2018-10-19T02:00:46.324Z,11.37
2018-10-19T02:01:25.937Z,11.43
2018-10-19T02:02:06.481Z,11.93
2018-10-19T02:02:46.105Z,11.93
2018-10-19T02:03:25.845Z,11.47
2018-10-19T02:04:05.573Z,11.47
2018-10-19T02:04:45.224Z,11.80
2018-10-19T02:05:24.852Z,11.40
2018-10-19T02:06:04.956Z,11.83
2018-10-19T02:06:45.152Z,11.43
2018-10-19T02:07:24.848Z,11.97
2018-10-19T02:08:04.780Z,12.80
2018-10-19T02:08:44.595Z,11.77
2018-10-19T02:09:24.206Z,11.13
2018-10-19T02:10:03.785Z,11.93
2018-10-19T02:10:43.432Z,11.57
2018-10-19T02:11:23.117Z,12.07
2018-10-19T02:12:02.864Z,11.10
2018-10-19T02:12:42.728Z,11.33
2018-10-19T02:13:22.838Z,11.17
2018-10-19T02:14:02.603Z,12.40
2018-10-19T02:14:42.342Z,11.80
2018-10-19T02:15:21.919Z,11.83
2018-10-19T02:16:01.615Z,11.40
2018-10-19T02:16:41.662Z,11.73
2018-10-19T02:17:21.245Z,12.13
2018-10-19T02:18:01.063Z,12.07
2018-10-19T02:18:40.592Z,11.47
2018-10-19T02:19:20.285Z,11.10
2018-10-19T02:20:00.100Z,11.30
2018-10-19T02:20:40.232Z,12.40
2018-10-19T02:21:19.926Z,11.07
2018-10-19T02:21:59.606Z,11.50
2018-10-19T02:22:39.440Z,11.70
2018-10-19T02:23:19.251Z,11.27
2018-10-19T02:23:59.068Z,11.20
2018-10-19T02:24:38.840Z,12.00
2018-10-19T02:25:18.839Z,11.13
2018-10-19T02:25:58.679Z,10.97
2018-10-19T02:26:38.392Z,11.10
2018-10-19T02:27:18.484Z,11.53
2018-10-19T02:27:58.276Z,11.63
2018-10-19T02:28:37.929Z,11.57
2018-10-19T02:29:17.742Z,11.37
2018-10-19T02:29:57.491Z,11.07
2018-10-19T02:30:37.300Z,11.53
2018-10-19T02:31:17.131Z,11.33
2018-10-19T02:31:56.832Z,11.43
2018-10-19T02:32:36.740Z,11.37
2018-10-19T02:33:16.352Z,11.07
2018-10-19T02:33:56.242Z,11.73
2018-10-19T02:34:35.806Z,11.10
2018-10-19T02:35:15.592Z,11.57
2018-10-19T02:35:55.369Z,11.40
2018-10-19T02:36:35.028Z,11.23
2018-10-19T02:37:14.624Z,11.07
2018-10-19T02:37:54.246Z,10.63
2018-10-19T02:38:34.078Z,11.60
2018-10-19T02:39:13.675Z,11.23
2018-10-19T02:39:53.664Z,12.13
2018-10-19T02:40:33.840Z,11.07
2018-10-19T02:41:13.699Z,11.30
2018-10-19T02:41:53.453Z,11.33
2018-10-19T02:42:33.188Z,11.83
2018-10-19T02:43:13.205Z,11.53
2018-10-19T02:43:52.783Z,12.23
2018-10-19T02:44:32.551Z,11.73
2018-10-19T02:45:12.261Z,10.47
2018-10-19T02:45:52.147Z,10.90
2018-10-19T02:46:31.780Z,11.57
2018-10-19T02:47:11.478Z,11.57
2018-10-19T02:47:51.280Z,11.10
2018-10-19T02:48:30.974Z,11.73
2018-10-19T02:49:10.600Z,11.00
2018-10-19T02:49:50.324Z,11.50
2018-10-19T02:50:30.079Z,11.00
2018-10-19T02:51:09.848Z,12.10
2018-10-19T02:51:49.748Z,12.07
2018-10-19T02:52:29.432Z,10.73
2018-10-19T02:53:09.191Z,11.83
2018-10-19T02:53:49.227Z,10.87
2018-10-19T02:54:28.924Z,11.10
2018-10-19T02:55:09.531Z,11.57
2018-10-19T02:55:49.108Z,11.33
2018-10-19T02:56:28.794Z,11.93
2018-10-19T02:57:08.641Z,10.40
2018-10-19T02:57:48.740Z,11.23
2018-10-19T02:58:28.553Z,10.47
2018-10-19T02:59:08.324Z,11.40
2018-10-19T02:59:48.397Z,11.63
2018-10-19T03:00:28.195Z,11.03
2018-10-19T03:01:07.836Z,10.47
2018-10-19T03:01:47.662Z,10.57
2018-10-19T03:02:27.478Z,11.30
2018-10-19T03:03:07.146Z,10.67
2018-10-19T03:03:47.178Z,11.03
2018-10-19T03:04:26.940Z,10.90
2018-10-19T03:05:07.792Z,11.27
2018-10-19T03:05:47.995Z,11.23
2018-10-19T03:06:27.608Z,11.80
2018-10-19T03:07:07.628Z,11.13
2018-10-19T03:07:47.457Z,11.50
2018-10-19T03:08:27.214Z,11.53
2018-10-19T03:09:09.834Z,10.80
2018-10-19T03:09:49.825Z,10.30
2018-10-19T03:10:29.626Z,11.00
2018-10-19T03:11:09.346Z,11.43
2018-10-19T03:11:49.408Z,11.60
2018-10-19T03:12:29.131Z,10.80
2018-10-19T03:13:09.229Z,11.30
2018-10-19T03:13:48.989Z,11.17
2018-10-19T03:14:29.505Z,11.20
2018-10-19T03:15:10.090Z,11.03
2018-10-19T03:15:50.342Z,10.73
2018-10-19T03:16:30.087Z,11.27
2018-10-19T03:17:09.875Z,11.23
2018-10-19T03:17:50.043Z,11.10
2018-10-19T03:18:29.798Z,11.40
2018-10-19T03:19:09.383Z,11.33
2018-10-19T03:19:49.503Z,11.37
2018-10-19T03:20:30.003Z,11.10
2018-10-19T03:21:10.212Z,11.33
2018-10-19T03:21:50.798Z,10.63
2018-10-19T03:22:30.484Z,11.27
2018-10-19T03:23:10.211Z,12.37
2018-10-19T03:23:50.655Z,11.10
2018-10-19T03:24:30.385Z,11.80
2018-10-19T03:25:10.521Z,12.00
2018-10-19T03:25:50.388Z,11.70
2018-10-19T03:26:30.025Z,11.27
2018-10-19T03:27:10.108Z,11.23
2018-10-19T03:27:50.214Z,11.40
2018-10-19T03:28:29.890Z,11.10
2018-10-19T03:29:09.653Z,11.47
2018-10-19T03:29:49.633Z,11.77
2018-10-19T03:30:29.367Z,12.03
2018-10-19T03:31:09.169Z,12.00
2018-10-19T03:31:49.430Z,11.30
2018-10-19T03:32:29.317Z,11.47
2018-10-19T03:33:08.845Z,11.83
2018-10-19T03:33:49.044Z,12.80
2018-10-19T03:34:28.794Z,12.10
2018-10-19T03:35:08.685Z,12.30
2018-10-19T03:35:48.846Z,11.73
2018-10-19T03:36:28.656Z,12.17
2018-10-19T03:37:08.492Z,12.63
2018-10-19T03:37:48.132Z,12.27
2018-10-19T03:38:27.955Z,12.00
2018-10-19T03:39:08.804Z,12.37
2018-10-19T03:39:48.835Z,11.93
2018-10-19T03:40:28.539Z,13.20
2018-10-19T03:41:08.352Z,13.10
2018-10-19T03:41:48.059Z,12.30
2018-10-19T03:42:27.830Z,12.27
2018-10-19T03:43:07.488Z,12.73
2018-10-19T03:43:47.209Z,12.33
2018-10-19T03:44:26.866Z,13.03
2018-10-19T03:45:07.338Z,12.57
2018-10-19T03:45:47.185Z,12.37
2018-10-19T03:46:27.120Z,12.73
2018-10-19T03:47:06.817Z,13.47
2018-10-19T03:47:46.872Z,12.97
2018-10-19T03:48:26.532Z,12.70
2018-10-19T03:49:06.840Z,13.27
2018-10-19T03:49:46.861Z,12.97
2018-10-19T03:50:26.615Z,12.70
2018-10-19T03:51:06.989Z,12.90
2018-10-19T03:51:46.897Z,12.27
2018-10-19T03:52:26.663Z,12.87
2018-10-19T03:53:06.677Z,12.30
2018-10-19T03:53:46.927Z,12.90
2018-10-19T03:54:26.773Z,12.60
2018-10-19T03:55:06.908Z,13.03
2018-10-19T03:55:46.615Z,12.30
2018-10-19T03:56:26.459Z,13.50
2018-10-19T03:57:06.134Z,13.80
2018-10-19T03:57:46.076Z,14.23
2018-10-19T03:58:25.717Z,12.77
2018-10-19T03:59:05.911Z,13.30
2018-10-19T03:59:45.764Z,13.33
2018-10-19T04:00:25.361Z,13.60
2018-10-19T04:01:05.160Z,13.33
2018-10-19T04:01:44.774Z,14.23
2018-10-19T04:02:24.453Z,13.53
2018-10-19T04:03:04.344Z,13.63
2018-10-19T04:03:44.635Z,13.50
2018-10-19T04:04:24.413Z,13.70
2018-10-19T04:05:04.281Z,13.50
2018-10-19T04:05:44.386Z,12.60
2018-10-19T04:06:24.323Z,13.43
2018-10-19T04:07:04.512Z,12.50
2018-10-19T04:07:44.754Z,13.07
2018-10-19T04:08:24.596Z,13.73
2018-10-19T04:09:06.531Z,13.63
2018-10-19T04:09:46.504Z,13.23
2018-10-19T04:10:26.251Z,13.20
2018-10-19T04:11:05.880Z,13.47
2018-10-19T04:11:45.759Z,14.40
2018-10-19T04:12:25.535Z,14.87
2018-10-19T04:13:05.539Z,13.93
2018-10-19T04:13:45.303Z,13.20
2018-10-19T04:14:24.900Z,13.60
2018-10-19T04:15:05.263Z,13.90
2018-10-19T04:15:45.084Z,13.20
2018-10-19T04:16:26.949Z,13.90
2018-10-19T04:17:06.706Z,13.03
2018-10-19T04:17:46.658Z,14.47
2018-10-19T04:18:26.301Z,13.10
2018-10-19T04:19:06.740Z,13.47
2018-10-19T04:19:46.284Z,13.90
2018-10-19T04:20:26.257Z,13.30
2018-10-19T04:21:05.926Z,14.37
2018-10-19T04:21:45.997Z,13.63
2018-10-19T04:22:25.808Z,13.97
2018-10-19T04:23:09.231Z,13.83
2018-10-19T04:23:49.436Z,14.20
2018-10-19T04:24:29.043Z,15.33
2018-10-19T04:25:09.121Z,14.50
2018-10-19T04:25:48.872Z,14.77
2018-10-19T04:26:28.732Z,16.13
2018-10-19T04:27:08.547Z,14.43
2018-10-19T04:27:48.828Z,14.53
2018-10-19T04:28:28.842Z,15.23
2018-10-19T04:29:08.653Z,15.50
2018-10-19T04:29:48.681Z,15.63
2018-10-19T04:30:28.292Z,14.87
2018-10-19T04:31:08.227Z,15.40
2018-10-19T04:31:47.977Z,14.47
2018-10-19T04:32:27.812Z,15.17
2018-10-19T04:33:07.520Z,15.47
2018-10-19T04:33:47.341Z,15.20
2018-10-19T04:34:27.076Z,15.20
2018-10-19T04:35:07.036Z,15.37
2018-10-19T04:35:46.963Z,15.03
2018-10-19T04:36:26.751Z,15.90
2018-10-19T04:37:07.163Z,15.03
2018-10-19T04:37:46.829Z,15.67
2018-10-19T04:38:26.677Z,14.50
2018-10-19T04:39:07.486Z,15.73
2018-10-19T04:39:47.382Z,15.13
2018-10-19T04:40:27.144Z,15.73
2018-10-19T04:41:07.061Z,15.37
2018-10-19T04:41:47.183Z,15.57
2018-10-19T04:42:27.195Z,14.50
2018-10-19T04:43:07.143Z,15.93
2018-10-19T04:43:46.969Z,15.70
2018-10-19T04:44:26.988Z,15.43
2018-10-19T04:45:07.350Z,16.57
2018-10-19T04:45:47.896Z,15.87
2018-10-19T04:46:27.832Z,16.00
2018-10-19T04:47:07.602Z,15.83
2018-10-19T04:47:47.539Z,16.77
2018-10-19T04:48:27.532Z,16.07
2018-10-19T04:49:07.291Z,15.90
2018-10-19T04:49:47.041Z,15.90
2018-10-19T04:50:26.678Z,16.37
2018-10-19T04:51:06.633Z,15.77
2018-10-19T04:51:46.394Z,14.87
2018-10-19T04:52:26.060Z,15.97
2018-10-19T04:53:06.044Z,15.37
2018-10-19T04:53:45.971Z,16.00
2018-10-19T04:54:26.076Z,16.40
2018-10-19T04:55:07.405Z,15.83
2018-10-19T04:55:46.945Z,16.33
2018-10-19T04:56:27.017Z,15.87
2018-10-19T04:57:06.957Z,15.43
2018-10-19T04:57:47.259Z,16.33
2018-10-19T04:58:27.189Z,15.37
2018-10-19T04:59:07.069Z,16.27
2018-10-19T04:59:46.873Z,15.63
2018-10-19T05:00:26.770Z,16.77
2018-10-19T05:01:06.384Z,16.00
2018-10-19T05:01:46.164Z,16.37
2018-10-19T05:02:26.101Z,16.57
2018-10-19T05:03:06.353Z,17.07
2018-10-19T05:03:46.080Z,15.90
2018-10-19T05:04:25.840Z,17.13
2018-10-19T05:05:06.758Z,17.03
2018-10-19T05:05:46.499Z,16.17
2018-10-19T05:06:26.696Z,16.03
2018-10-19T05:07:06.693Z,16.33
2018-10-19T05:07:46.880Z,16.03
2018-10-19T05:08:26.684Z,17.43
2018-10-19T05:09:09.579Z,16.43
2018-10-19T05:09:49.502Z,16.73
2018-10-19T05:10:29.384Z,16.60
2018-10-19T05:11:09.090Z,16.47
2018-10-19T05:11:49.304Z,16.00
2018-10-19T05:12:29.212Z,17.27
2018-10-19T05:13:09.244Z,16.90
2018-10-19T05:13:49.215Z,17.10
2018-10-19T05:14:28.941Z,16.30
2018-10-19T05:15:10.593Z,16.50
2018-10-19T05:15:51.266Z,16.53
2018-10-19T05:16:31.132Z,15.73
2018-10-19T05:17:11.097Z,17.10
2018-10-19T05:17:51.523Z,16.30
2018-10-19T05:18:31.117Z,16.53
2018-10-19T05:19:10.756Z,16.77
2018-10-19T05:19:50.657Z,16.60
2018-10-19T05:20:30.525Z,16.70
2018-10-19T05:21:10.268Z,17.13
2018-10-19T05:21:50.154Z,15.90
2018-10-19T05:22:30.058Z,16.67
2018-10-19T05:23:09.646Z,17.10
2018-10-19T05:23:49.573Z,17.33
2018-10-19T05:24:29.312Z,17.23
2018-10-19T05:25:11.189Z,17.00
2018-10-19T05:25:50.806Z,16.77
2018-10-19T05:26:30.712Z,17.60
2018-10-19T05:27:10.767Z,17.93
2018-10-19T05:27:51.059Z,17.37
2018-10-19T05:28:30.677Z,16.63
2018-10-19T05:29:10.362Z,16.43
2018-10-19T05:29:50.396Z,16.07
2018-10-19T05:30:30.024Z,18.10
2018-10-19T05:31:09.814Z,18.33
2018-10-19T05:31:49.600Z,17.73
2018-10-19T05:32:29.172Z,16.70
2018-10-19T05:33:08.829Z,17.97
2018-10-19T05:33:48.682Z,17.27
2018-10-19T05:34:28.618Z,17.57
2018-10-19T05:35:08.367Z,16.87
2018-10-19T05:35:48.317Z,16.57
2018-10-19T05:36:27.916Z,17.33
2018-10-19T05:37:07.470Z,17.73
2018-10-19T05:37:47.419Z,17.60
2018-10-19T05:38:27.264Z,17.77
2018-10-19T05:39:08.514Z,17.10
2018-10-19T05:39:48.168Z,17.70
2018-10-19T05:40:28.197Z,17.90
2018-10-19T05:41:07.911Z,18.73
2018-10-19T05:41:47.869Z,17.63
2018-10-19T05:42:27.839Z,17.30
2018-10-19T05:43:07.450Z,16.63
2018-10-19T05:43:47.081Z,17.80
2018-10-19T05:44:27.221Z,16.83
2018-10-19T05:45:08.700Z,16.97
2018-10-19T05:45:48.357Z,16.93
2018-10-19T05:46:29.171Z,17.57
2018-10-19T05:47:08.776Z,17.33
2018-10-19T05:47:48.736Z,18.07
2018-10-19T05:48:28.982Z,18.23
2018-10-19T05:49:08.651Z,17.03
2018-10-19T05:49:48.406Z,17.03
2018-10-19T05:50:28.182Z,18.17
2018-10-19T05:51:08.281Z,16.17
2018-10-19T05:51:48.022Z,17.10
2018-10-19T05:52:27.666Z,17.50
2018-10-19T05:53:07.412Z,17.13
2018-10-19T05:53:47.480Z,17.13
2018-10-19T05:54:27.514Z,17.60
2018-10-19T05:55:07.786Z,16.63
2018-10-19T05:55:47.536Z,17.53
2018-10-19T05:56:27.443Z,17.63
2018-10-19T05:57:07.136Z,18.07
2018-10-19T05:57:46.827Z,18.00
2018-10-19T05:58:26.667Z,18.13
2018-10-19T05:59:06.771Z,18.10
2018-10-19T05:59:46.693Z,17.60
2018-10-19T06:00:26.952Z,18.30
2018-10-19T06:01:06.951Z,17.97
2018-10-19T06:01:46.766Z,17.30
2018-10-19T06:02:26.797Z,18.07
2018-10-19T06:03:06.642Z,16.90
2018-10-19T06:03:46.518Z,18.00
2018-10-19T06:04:26.272Z,17.83
2018-10-19T06:05:07.310Z,18.60
2018-10-19T06:05:47.355Z,17.37
2018-10-19T06:06:27.267Z,16.70
2018-10-19T06:07:07.082Z,17.63
2018-10-19T06:07:46.984Z,17.47
2018-10-19T06:08:26.677Z,17.80
2018-10-19T06:09:08.700Z,18.40
2018-10-19T06:09:48.329Z,18.73
2018-10-19T06:10:28.244Z,17.60
2018-10-19T06:11:07.923Z,17.73
2018-10-19T06:11:47.886Z,18.50
2018-10-19T06:12:27.858Z,18.40
2018-10-19T06:13:07.595Z,17.70
2018-10-19T06:13:47.517Z,18.60
2018-10-19T06:14:27.144Z,17.97
2018-10-19T06:15:08.026Z,18.47
2018-10-19T06:15:47.626Z,18.23
2018-10-19T06:16:27.476Z,18.27
2018-10-19T06:17:07.180Z,17.43
2018-10-19T06:17:47.037Z,17.73
2018-10-19T06:18:26.908Z,16.70
2018-10-19T06:19:07.765Z,18.23
2018-10-19T06:19:47.277Z,18.47
2018-10-19T06:20:27.005Z,17.10
2018-10-19T06:21:07.021Z,17.50
2018-10-19T06:21:46.800Z,16.63
2018-10-19T06:22:26.664Z,16.90
2018-10-19T06:23:07.098Z,17.33
2018-10-19T06:23:46.829Z,17.60
2018-10-19T06:24:26.518Z,17.27
2018-10-19T06:25:06.428Z,17.57
2018-10-19T06:25:46.378Z,18.17
2018-10-19T06:26:26.631Z,18.57
2018-10-19T06:27:07.239Z,17.97
2018-10-19T06:27:46.955Z,18.43
2018-10-19T06:28:26.721Z,18.17
2018-10-19T06:29:06.444Z,17.67
2018-10-19T06:29:46.296Z,17.13
2018-10-19T06:30:26.116Z,17.40
2018-10-19T06:31:06.317Z,17.23
2018-10-19T06:31:46.654Z,17.93
2018-10-19T06:32:26.748Z,18.03
2018-10-19T06:33:06.669Z,18.40
2018-10-19T06:33:46.294Z,17.43
2018-10-19T06:34:26.322Z,18.20
2018-10-19T06:35:06.331Z,17.43
2018-10-19T06:35:46.218Z,18.30
2018-10-19T06:36:26.802Z,17.90
2018-10-19T06:37:06.497Z,17.63
2018-10-19T06:37:46.440Z,17.83
2018-10-19T06:38:26.152Z,17.10
2018-10-19T06:39:08.923Z,17.83
2018-10-19T06:39:48.447Z,17.87
2018-10-19T06:40:28.092Z,17.97
2018-10-19T06:41:07.946Z,18.47
2018-10-19T06:41:48.318Z,17.63
2018-10-19T06:42:28.207Z,17.73
2018-10-19T06:43:08.068Z,17.43
2018-10-19T06:43:47.651Z,17.57
2018-10-19T06:44:27.577Z,17.57
2018-10-19T06:45:07.507Z,18.27
2018-10-19T06:45:47.164Z,17.60
2018-10-19T06:46:27.577Z,18.20
2018-10-19T06:47:07.788Z,18.80
2018-10-19T06:47:47.730Z,18.87
2018-10-19T06:48:27.452Z,18.43
2018-10-19T06:49:07.294Z,18.73
2018-10-19T06:49:47.260Z,18.50
2018-10-19T06:50:27.091Z,19.13
2018-10-19T06:51:06.753Z,18.33
2018-10-19T06:51:46.505Z,18.90
2018-10-19T06:52:26.260Z,16.80
2018-10-19T06:53:06.696Z,19.00
2018-10-19T06:53:46.566Z,19.13
2018-10-19T06:54:26.919Z,18.37
2018-10-19T06:55:08.484Z,18.40
2018-10-19T06:55:48.198Z,17.63
2018-10-19T06:56:28.522Z,18.67
2018-10-19T06:57:08.158Z,17.93
2018-10-19T06:57:48.068Z,18.40
2018-10-19T06:58:27.639Z,18.60
2018-10-19T06:59:07.369Z,18.83
2018-10-19T06:59:47.446Z,18.23
2018-10-19T07:00:27.266Z,16.80
2018-10-19T07:01:07.100Z,18.17
2018-10-19T07:01:46.864Z,17.67
2018-10-19T07:02:26.712Z,18.17
2018-10-19T07:03:07.252Z,19.87
2018-10-19T07:03:47.515Z,18.65
2018-10-19T07:04:27.342Z,17.93
2018-10-19T07:05:07.107Z,19.67
2018-10-19T07:05:47.434Z,19.27
2018-10-19T07:06:27.546Z,18.90
2018-10-19T07:07:07.348Z,19.13
2018-10-19T07:07:47.220Z,18.87
2018-10-19T07:08:27.465Z,18.37
2018-10-19T07:09:08.741Z,18.47
2018-10-19T07:09:48.815Z,18.33
2018-10-19T07:10:28.388Z,18.67
2018-10-19T07:11:08.295Z,19.00
2018-10-19T07:11:48.044Z,18.37
2018-10-19T07:12:27.736Z,18.33
2018-10-19T07:13:07.970Z,19.05
2018-10-19T07:13:47.494Z,19.10
2018-10-19T07:14:27.205Z,18.83
2018-10-19T07:15:08.020Z,19.53
2018-10-19T07:15:47.696Z,18.90
2018-10-19T07:16:27.871Z,20.10
2018-10-19T07:17:07.591Z,19.13
2018-10-19T07:17:47.385Z,19.90
2018-10-19T07:18:27.062Z,19.20
2018-10-19T07:19:07.194Z,19.93
2018-10-19T07:19:47.093Z,20.47
2018-10-19T07:20:26.798Z,20.43
2018-10-19T07:21:06.443Z,19.03
2018-10-19T07:21:46.236Z,19.50
2018-10-19T07:22:26.038Z,19.13
2018-10-19T07:23:06.220Z,19.60
2018-10-19T07:23:46.244Z,19.50
2018-10-19T07:24:25.949Z,20.40
2018-10-19T07:25:05.992Z,18.60
2018-10-19T07:25:45.497Z,18.53
2018-10-19T07:26:25.220Z,20.90
2018-10-19T07:27:05.288Z,19.80
2018-10-19T07:27:44.910Z,18.43
2018-10-19T07:28:24.771Z,18.93
2018-10-19T07:29:05.067Z,19.10
2018-10-19T07:29:45.054Z,19.70
2018-10-19T07:30:24.887Z,19.33
2018-10-19T07:31:04.461Z,18.83
2018-10-19T07:31:44.157Z,20.60
2018-10-19T07:32:23.995Z,21.67
2018-10-19T07:33:03.933Z,19.82
2018-10-19T07:33:43.588Z,20.17
2018-10-19T07:34:23.452Z,21.90
2018-10-19T07:35:03.176Z,20.27
2018-10-19T07:35:43.146Z,19.27
2018-10-19T07:36:24.310Z,20.17
2018-10-19T07:37:05.350Z,19.32
2018-10-19T07:37:45.940Z,20.45
2018-10-19T07:38:25.310Z,19.55
2018-10-19T07:39:06.825Z,20.00
2018-10-19T07:39:47.200Z,20.17
2018-10-19T07:40:27.476Z,20.05
2018-10-19T07:41:07.852Z,19.92
2018-10-19T07:41:47.894Z,19.05
2018-10-19T07:42:28.456Z,18.87
2018-10-19T07:43:08.461Z,19.57
2018-10-19T07:43:48.704Z,20.15
2018-10-19T07:44:29.174Z,19.87
2018-10-19T07:45:08.800Z,21.00
2018-10-19T07:45:48.862Z,20.67
2018-10-19T07:46:29.678Z,19.90
2018-10-19T07:47:09.810Z,19.97
2018-10-19T07:47:50.363Z,19.85
2018-10-19T07:48:30.798Z,19.17
2018-10-19T07:49:11.432Z,19.65
2018-10-19T07:49:52.038Z,20.10
2018-10-19T07:50:32.440Z,20.52
2018-10-19T07:51:12.263Z,19.47
2018-10-19T07:51:52.600Z,20.37
2018-10-19T07:52:33.131Z,18.62
2018-10-19T07:53:12.831Z,19.97
2018-10-19T07:53:53.277Z,19.87
2018-10-19T07:54:33.831Z,19.55
2018-10-19T07:55:13.763Z,19.40
2018-10-19T07:55:54.212Z,18.92
2018-10-19T07:56:34.900Z,19.77
2018-10-19T07:57:15.156Z,20.20
2018-10-19T07:57:54.909Z,20.73
2018-10-19T07:58:35.257Z,20.08
2018-10-19T07:59:15.138Z,19.77
2018-10-19T07:59:55.568Z,19.65
2018-10-19T08:00:35.934Z,19.42
2018-10-19T08:01:16.537Z,18.90
2018-10-19T08:01:56.943Z,20.17
2018-10-19T08:02:37.435Z,21.02
2018-10-19T08:03:17.713Z,19.67
2018-10-19T08:03:58.116Z,20.12
2018-10-19T08:04:38.592Z,19.20
2018-10-19T08:05:18.793Z,19.85
2018-10-19T08:05:59.187Z,19.00
2018-10-19T08:06:39.505Z,19.35
2018-10-19T08:07:19.977Z,19.00
2018-10-19T08:07:59.783Z,19.03
2018-10-19T08:08:40.258Z,18.98
2018-10-19T08:09:20.868Z,20.30
2018-10-19T08:10:01.049Z,18.67
2018-10-19T08:10:41.283Z,20.10
2018-10-19T08:11:21.720Z,18.73
2018-10-19T08:12:02.251Z,19.60
2018-10-19T08:12:42.540Z,20.43
2018-10-19T08:13:23.577Z,19.45
2018-10-19T08:14:04.059Z,18.67
2018-10-19T08:14:44.420Z,19.62
2018-10-19T08:15:24.964Z,20.52
2018-10-19T08:16:05.484Z,20.48
2018-10-19T08:16:46.180Z,20.10
2018-10-19T08:17:26.737Z,20.40
2018-10-19T08:18:07.441Z,20.20
2018-10-19T08:18:47.824Z,19.62
2018-10-19T08:19:28.633Z,19.62
2018-10-19T08:20:10.081Z,19.95
2018-10-19T08:20:50.705Z,20.10
2018-10-19T08:21:31.120Z,20.92
2018-10-19T08:22:11.362Z,19.77
2018-10-19T08:22:51.830Z,19.25
2018-10-19T08:23:32.124Z,19.17
2018-10-19T08:24:12.536Z,19.52
2018-10-19T08:24:53.805Z,21.02
2018-10-19T08:25:34.051Z,21.42
2018-10-19T08:26:14.398Z,20.32
2018-10-19T08:26:54.936Z,19.77
2018-10-19T08:27:35.252Z,19.07
2018-10-19T08:28:15.706Z,19.60
2018-10-19T08:28:56.265Z,19.15
2018-10-19T08:29:36.530Z,19.17
2018-10-19T08:30:16.901Z,18.75
2018-10-19T08:30:57.250Z,18.80
2018-10-19T08:31:37.448Z,18.87
2018-10-19T08:32:17.835Z,19.07
2018-10-19T08:32:58.417Z,19.77
2018-10-19T08:33:38.603Z,20.23
2018-10-19T08:34:18.975Z,18.67
2018-10-19T08:34:59.220Z,18.25